sensor_id;sensor_type;location;lat;lon;timestamp;P1;durP1;ratioP1;P2;durP2;ratioP2
42704;SDS011;28342;42.594;23.414;2023-04-24T00:00:03;7.45;;;3.80;;
42704;SDS011;28342;42.594;23.414;2023-04-24T00:02:37;10.07;;;4.03;;
42704;SDS011;28342;42.594;23.414;2023-04-24T00:05:06;6.18;;;3.58;;
42704;SDS011;28342;42.594;23.414;2023-04-24T00:07:35;4.53;;;3.20;;
42704;SDS011;28342;42.594;23.414;2023-04-24T00:10:01;8.65;;;3.35;;
42704;SDS011;28342;42.594;23.414;2023-04-24T00:12:26;7.72;;;3.53;;
42704;SDS011;28342;42.594;23.414;2023-04-24T00:14:52;5.40;;;3.75;;
42704;SDS011;28342;42.594;23.414;2023-04-24T00:17:18;6.97;;;3.97;;
42704;SDS011;28342;42.594;23.414;2023-04-24T00:19:46;6.75;;;3.42;;
42704;SDS011;28342;42.594;23.414;2023-04-24T00:22:12;6.82;;;3.88;;
42704;SDS011;28342;42.594;23.414;2023-04-24T00:24:38;4.22;;;3.28;;
42704;SDS011;28342;42.594;23.414;2023-04-24T00:27:04;5.53;;;3.60;;
42704;SDS011;28342;42.594;23.414;2023-04-24T00:29:29;7.55;;;4.43;;
42704;SDS011;28342;42.594;23.414;2023-04-24T00:31:55;7.80;;;4.10;;
42704;SDS011;28342;42.594;23.414;2023-04-24T00:34:20;4.13;;;3.20;;
42704;SDS011;28342;42.594;23.414;2023-04-24T00:36:46;5.88;;;3.92;;
42704;SDS011;28342;42.594;23.414;2023-04-24T00:39:11;5.50;;;4.10;;
42704;SDS011;28342;42.594;23.414;2023-04-24T00:41:37;6.65;;;3.97;;
42704;SDS011;28342;42.594;23.414;2023-04-24T00:44:02;8.40;;;4.75;;
42704;SDS011;28342;42.594;23.414;2023-04-24T00:46:27;8.63;;;3.92;;
42704;SDS011;28342;42.594;23.414;2023-04-24T00:48:53;9.07;;;4.63;;
42704;SDS011;28342;42.594;23.414;2023-04-24T00:51:19;7.70;;;4.38;;
42704;SDS011;28342;42.594;23.414;2023-04-24T00:53:46;4.43;;;3.50;;
42704;SDS011;28342;42.594;23.414;2023-04-24T00:56:11;7.03;;;4.50;;
42704;SDS011;28342;42.594;23.414;2023-04-24T00:58:37;14.43;;;4.97;;
42704;SDS011;28342;42.594;23.414;2023-04-24T01:01:03;8.30;;;4.70;;
42704;SDS011;28342;42.594;23.414;2023-04-24T01:03:31;7.35;;;4.72;;
42704;SDS011;28342;42.594;23.414;2023-04-24T01:05:57;7.03;;;4.90;;
42704;SDS011;28342;42.594;23.414;2023-04-24T01:08:23;8.43;;;5.07;;
42704;SDS011;28342;42.594;23.414;2023-04-24T01:10:51;6.15;;;4.70;;
42704;SDS011;28342;42.594;23.414;2023-04-24T01:13:17;6.53;;;4.32;;
42704;SDS011;28342;42.594;23.414;2023-04-24T01:15:44;6.53;;;4.70;;
42704;SDS011;28342;42.594;23.414;2023-04-24T01:18:09;7.72;;;4.95;;
42704;SDS011;28342;42.594;23.414;2023-04-24T01:20:35;21.17;;;7.32;;
42704;SDS011;28342;42.594;23.414;2023-04-24T01:23:04;10.48;;;5.53;;
42704;SDS011;28342;42.594;23.414;2023-04-24T01:25:33;13.18;;;7.00;;
42704;SDS011;28342;42.594;23.414;2023-04-24T01:27:59;10.52;;;6.25;;
42704;SDS011;28342;42.594;23.414;2023-04-24T01:30:25;7.22;;;4.60;;
42704;SDS011;28342;42.594;23.414;2023-04-24T01:32:52;8.13;;;5.30;;
42704;SDS011;28342;42.594;23.414;2023-04-24T01:35:18;9.30;;;5.28;;
42704;SDS011;28342;42.594;23.414;2023-04-24T01:37:43;10.23;;;6.10;;
42704;SDS011;28342;42.594;23.414;2023-04-24T01:40:09;7.22;;;4.88;;
42704;SDS011;28342;42.594;23.414;2023-04-24T01:42:35;9.93;;;6.43;;
42704;SDS011;28342;42.594;23.414;2023-04-24T01:45:01;10.65;;;5.65;;
42704;SDS011;28342;42.594;23.414;2023-04-24T01:47:28;7.18;;;5.20;;
42704;SDS011;28342;42.594;23.414;2023-04-24T01:49:55;9.35;;;6.00;;
42704;SDS011;28342;42.594;23.414;2023-04-24T01:52:21;12.07;;;6.85;;
42704;SDS011;28342;42.594;23.414;2023-04-24T01:54:46;11.82;;;7.07;;
42704;SDS011;28342;42.594;23.414;2023-04-24T01:57:12;12.88;;;7.15;;
42704;SDS011;28342;42.594;23.414;2023-04-24T01:59:39;12.40;;;6.68;;
42704;SDS011;28342;42.594;23.414;2023-04-24T02:02:05;11.93;;;7.97;;
42704;SDS011;28342;42.594;23.414;2023-04-24T02:04:30;12.80;;;8.18;;
42704;SDS011;28342;42.594;23.414;2023-04-24T02:06:56;11.85;;;7.95;;
42704;SDS011;28342;42.594;23.414;2023-04-24T02:09:21;16.27;;;7.55;;
42704;SDS011;28342;42.594;23.414;2023-04-24T02:11:47;14.13;;;7.65;;
42704;SDS011;28342;42.594;23.414;2023-04-24T02:14:12;12.82;;;7.70;;
42704;SDS011;28342;42.594;23.414;2023-04-24T02:16:37;13.93;;;7.05;;
42704;SDS011;28342;42.594;23.414;2023-04-24T02:19:03;12.10;;;7.40;;
42704;SDS011;28342;42.594;23.414;2023-04-24T02:21:29;10.90;;;7.63;;
42704;SDS011;28342;42.594;23.414;2023-04-24T02:23:56;15.05;;;8.05;;
42704;SDS011;28342;42.594;23.414;2023-04-24T02:26:21;13.35;;;8.52;;
42704;SDS011;28342;42.594;23.414;2023-04-24T02:28:47;13.13;;;7.50;;
42704;SDS011;28342;42.594;23.414;2023-04-24T02:31:12;11.65;;;7.10;;
42704;SDS011;28342;42.594;23.414;2023-04-24T02:33:38;13.18;;;8.15;;
42704;SDS011;28342;42.594;23.414;2023-04-24T02:36:03;10.88;;;8.30;;
42704;SDS011;28342;42.594;23.414;2023-04-24T02:38:29;13.57;;;8.35;;
42704;SDS011;28342;42.594;23.414;2023-04-24T02:40:54;12.82;;;7.88;;
42704;SDS011;28342;42.594;23.414;2023-04-24T02:43:20;12.75;;;7.85;;
42704;SDS011;28342;42.594;23.414;2023-04-24T02:45:46;12.52;;;7.43;;
42704;SDS011;28342;42.594;23.414;2023-04-24T02:48:11;12.10;;;8.32;;
42704;SDS011;28342;42.594;23.414;2023-04-24T02:50:37;14.50;;;8.23;;
42704;SDS011;28342;42.594;23.414;2023-04-24T02:53:02;14.70;;;8.02;;
42704;SDS011;28342;42.594;23.414;2023-04-24T02:55:28;12.50;;;7.95;;
42704;SDS011;28342;42.594;23.414;2023-04-24T02:57:53;11.25;;;7.25;;
42704;SDS011;28342;42.594;23.414;2023-04-24T03:00:19;13.07;;;7.63;;
42704;SDS011;28342;42.594;23.414;2023-04-24T03:02:44;10.13;;;7.00;;
42704;SDS011;28342;42.594;23.414;2023-04-24T03:05:10;10.18;;;6.72;;
42704;SDS011;28342;42.594;23.414;2023-04-24T03:07:37;12.23;;;7.28;;
42704;SDS011;28342;42.594;23.414;2023-04-24T03:10:02;11.48;;;7.03;;
42704;SDS011;28342;42.594;23.414;2023-04-24T03:12:29;10.55;;;6.50;;
42704;SDS011;28342;42.594;23.414;2023-04-24T03:14:55;13.32;;;8.05;;
42704;SDS011;28342;42.594;23.414;2023-04-24T03:17:20;14.20;;;7.47;;
42704;SDS011;28342;42.594;23.414;2023-04-24T03:19:46;17.00;;;8.95;;
42704;SDS011;28342;42.594;23.414;2023-04-24T03:22:11;12.27;;;7.43;;
42704;SDS011;28342;42.594;23.414;2023-04-24T03:24:37;9.32;;;7.38;;
42704;SDS011;28342;42.594;23.414;2023-04-24T03:27:02;10.98;;;7.50;;
42704;SDS011;28342;42.594;23.414;2023-04-24T03:29:28;11.93;;;8.43;;
42704;SDS011;28342;42.594;23.414;2023-04-24T03:31:53;14.20;;;8.48;;
42704;SDS011;28342;42.594;23.414;2023-04-24T03:34:18;15.30;;;8.40;;
42704;SDS011;28342;42.594;23.414;2023-04-24T03:36:44;12.27;;;7.72;;
42704;SDS011;28342;42.594;23.414;2023-04-24T03:39:12;13.43;;;7.45;;
42704;SDS011;28342;42.594;23.414;2023-04-24T03:41:37;14.30;;;8.32;;
42704;SDS011;28342;42.594;23.414;2023-04-24T03:44:03;12.90;;;7.82;;
42704;SDS011;28342;42.594;23.414;2023-04-24T03:46:28;14.15;;;8.57;;
42704;SDS011;28342;42.594;23.414;2023-04-24T03:48:54;15.73;;;9.50;;
42704;SDS011;28342;42.594;23.414;2023-04-24T03:51:20;10.35;;;7.13;;
42704;SDS011;28342;42.594;23.414;2023-04-24T03:53:45;13.95;;;8.18;;
42704;SDS011;28342;42.594;23.414;2023-04-24T03:56:11;16.48;;;9.07;;
42704;SDS011;28342;42.594;23.414;2023-04-24T03:58:36;13.18;;;8.65;;
42704;SDS011;28342;42.594;23.414;2023-04-24T04:01:02;14.70;;;8.52;;
42704;SDS011;28342;42.594;23.414;2023-04-24T04:03:27;16.20;;;8.90;;
42704;SDS011;28342;42.594;23.414;2023-04-24T04:05:52;13.57;;;8.18;;
42704;SDS011;28342;42.594;23.414;2023-04-24T04:08:19;12.75;;;7.68;;
42704;SDS011;28342;42.594;23.414;2023-04-24T04:10:44;16.00;;;9.10;;
42704;SDS011;28342;42.594;23.414;2023-04-24T04:13:10;17.05;;;9.73;;
42704;SDS011;28342;42.594;23.414;2023-04-24T04:15:35;14.50;;;9.13;;
42704;SDS011;28342;42.594;23.414;2023-04-24T04:18:01;21.48;;;9.40;;
42704;SDS011;28342;42.594;23.414;2023-04-24T04:20:27;16.50;;;9.10;;
42704;SDS011;28342;42.594;23.414;2023-04-24T04:22:52;14.15;;;8.27;;
42704;SDS011;28342;42.594;23.414;2023-04-24T04:25:17;13.32;;;7.90;;
42704;SDS011;28342;42.594;23.414;2023-04-24T04:27:44;11.52;;;7.25;;
42704;SDS011;28342;42.594;23.414;2023-04-24T04:30:13;11.95;;;7.45;;
42704;SDS011;28342;42.594;23.414;2023-04-24T04:32:38;15.07;;;7.20;;
42704;SDS011;28342;42.594;23.414;2023-04-24T04:35:04;10.45;;;7.55;;
42704;SDS011;28342;42.594;23.414;2023-04-24T04:37:30;13.70;;;7.65;;
42704;SDS011;28342;42.594;23.414;2023-04-24T04:39:56;11.68;;;7.10;;
42704;SDS011;28342;42.594;23.414;2023-04-24T04:42:23;11.77;;;7.43;;
42704;SDS011;28342;42.594;23.414;2023-04-24T04:44:49;12.75;;;7.68;;
42704;SDS011;28342;42.594;23.414;2023-04-24T04:47:15;11.10;;;6.93;;
42704;SDS011;28342;42.594;23.414;2023-04-24T04:49:42;11.18;;;7.00;;
42704;SDS011;28342;42.594;23.414;2023-04-24T04:52:08;10.70;;;6.53;;
42704;SDS011;28342;42.594;23.414;2023-04-24T04:54:33;13.48;;;7.65;;
42704;SDS011;28342;42.594;23.414;2023-04-24T04:56:59;11.00;;;7.55;;
42704;SDS011;28342;42.594;23.414;2023-04-24T04:59:25;12.00;;;7.63;;
42704;SDS011;28342;42.594;23.414;2023-04-24T05:01:51;8.95;;;6.07;;
42704;SDS011;28342;42.594;23.414;2023-04-24T05:04:16;9.65;;;6.78;;
42704;SDS011;28342;42.594;23.414;2023-04-24T05:06:42;15.57;;;6.85;;
42704;SDS011;28342;42.594;23.414;2023-04-24T05:09:07;10.20;;;6.05;;
42704;SDS011;28342;42.594;23.414;2023-04-24T05:11:33;12.45;;;6.85;;
42704;SDS011;28342;42.594;23.414;2023-04-24T05:13:58;14.32;;;6.53;;
42704;SDS011;28342;42.594;23.414;2023-04-24T05:16:23;15.02;;;7.40;;
42704;SDS011;28342;42.594;23.414;2023-04-24T05:18:49;10.73;;;6.38;;
42704;SDS011;28342;42.594;23.414;2023-04-24T05:21:14;11.05;;;6.47;;
42704;SDS011;28342;42.594;23.414;2023-04-24T05:23:40;11.63;;;7.68;;
42704;SDS011;28342;42.594;23.414;2023-04-24T05:26:06;16.27;;;7.85;;
42704;SDS011;28342;42.594;23.414;2023-04-24T05:28:31;13.68;;;7.82;;
42704;SDS011;28342;42.594;23.414;2023-04-24T05:30:57;11.63;;;8.07;;
42704;SDS011;28342;42.594;23.414;2023-04-24T05:33:24;11.07;;;7.82;;
42704;SDS011;28342;42.594;23.414;2023-04-24T05:35:49;10.80;;;7.22;;
42704;SDS011;28342;42.594;23.414;2023-04-24T05:38:15;16.70;;;12.45;;
42704;SDS011;28342;42.594;23.414;2023-04-24T05:40:44;12.20;;;8.57;;
42704;SDS011;28342;42.594;23.414;2023-04-24T05:43:10;9.35;;;6.45;;
42704;SDS011;28342;42.594;23.414;2023-04-24T05:45:36;10.27;;;6.75;;
42704;SDS011;28342;42.594;23.414;2023-04-24T05:48:02;9.98;;;6.78;;
42704;SDS011;28342;42.594;23.414;2023-04-24T05:50:28;11.95;;;7.68;;
42704;SDS011;28342;42.594;23.414;2023-04-24T05:52:53;9.07;;;6.60;;
42704;SDS011;28342;42.594;23.414;2023-04-24T05:55:19;9.25;;;5.97;;
42704;SDS011;28342;42.594;23.414;2023-04-24T05:57:44;8.18;;;6.15;;
42704;SDS011;28342;42.594;23.414;2023-04-24T06:00:11;12.02;;;6.00;;
42704;SDS011;28342;42.594;23.414;2023-04-24T06:02:37;9.35;;;6.03;;
42704;SDS011;28342;42.594;23.414;2023-04-24T06:05:03;10.80;;;6.60;;
42704;SDS011;28342;42.594;23.414;2023-04-24T06:07:29;14.35;;;5.68;;
42704;SDS011;28342;42.594;23.414;2023-04-24T06:09:58;9.43;;;6.13;;
42704;SDS011;28342;42.594;23.414;2023-04-24T06:12:23;8.45;;;5.97;;
42704;SDS011;28342;42.594;23.414;2023-04-24T06:14:49;7.55;;;6.07;;
42704;SDS011;28342;42.594;23.414;2023-04-24T06:17:15;10.65;;;5.18;;
42704;SDS011;28342;42.594;23.414;2023-04-24T06:19:40;10.05;;;5.53;;
42704;SDS011;28342;42.594;23.414;2023-04-24T06:22:06;8.25;;;4.85;;
42704;SDS011;28342;42.594;23.414;2023-04-24T06:24:33;10.13;;;5.32;;
42704;SDS011;28342;42.594;23.414;2023-04-24T06:26:59;6.95;;;4.82;;
42704;SDS011;28342;42.594;23.414;2023-04-24T06:29:25;9.02;;;4.82;;
42704;SDS011;28342;42.594;23.414;2023-04-24T06:31:50;6.18;;;4.40;;
42704;SDS011;28342;42.594;23.414;2023-04-24T06:34:16;6.43;;;4.82;;
42704;SDS011;28342;42.594;23.414;2023-04-24T06:36:41;6.78;;;4.68;;
42704;SDS011;28342;42.594;23.414;2023-04-24T06:39:07;6.82;;;4.45;;
42704;SDS011;28342;42.594;23.414;2023-04-24T06:41:32;10.68;;;5.35;;
42704;SDS011;28342;42.594;23.414;2023-04-24T06:43:58;7.22;;;5.50;;
42704;SDS011;28342;42.594;23.414;2023-04-24T06:46:23;12.20;;;5.32;;
42704;SDS011;28342;42.594;23.414;2023-04-24T06:48:51;7.75;;;5.28;;
42704;SDS011;28342;42.594;23.414;2023-04-24T06:51:17;12.90;;;5.82;;
42704;SDS011;28342;42.594;23.414;2023-04-24T06:53:43;9.48;;;5.68;;
42704;SDS011;28342;42.594;23.414;2023-04-24T06:56:08;10.55;;;5.82;;
42704;SDS011;28342;42.594;23.414;2023-04-24T06:58:34;9.10;;;5.85;;
42704;SDS011;28342;42.594;23.414;2023-04-24T07:00:59;10.40;;;6.85;;
42704;SDS011;28342;42.594;23.414;2023-04-24T07:03:25;13.07;;;6.00;;
42704;SDS011;28342;42.594;23.414;2023-04-24T07:05:50;18.23;;;5.43;;
42704;SDS011;28342;42.594;23.414;2023-04-24T07:08:16;12.75;;;5.65;;
42704;SDS011;28342;42.594;23.414;2023-04-24T07:10:42;10.05;;;5.50;;
42704;SDS011;28342;42.594;23.414;2023-04-24T07:13:09;10.77;;;5.55;;
42704;SDS011;28342;42.594;23.414;2023-04-24T07:15:34;21.48;;;7.47;;
42704;SDS011;28342;42.594;23.414;2023-04-24T07:18:00;12.15;;;6.40;;
42704;SDS011;28342;42.594;23.414;2023-04-24T07:20:25;10.75;;;6.18;;
42704;SDS011;28342;42.594;23.414;2023-04-24T07:22:51;9.05;;;6.10;;
42704;SDS011;28342;42.594;23.414;2023-04-24T07:25:18;9.63;;;6.18;;
42704;SDS011;28342;42.594;23.414;2023-04-24T07:27:44;40.92;;;10.00;;
42704;SDS011;28342;42.594;23.414;2023-04-24T07:30:09;12.57;;;6.50;;
42704;SDS011;28342;42.594;23.414;2023-04-24T07:32:35;9.43;;;6.47;;
42704;SDS011;28342;42.594;23.414;2023-04-24T07:35:01;15.77;;;7.47;;
42704;SDS011;28342;42.594;23.414;2023-04-24T07:37:27;7.55;;;5.43;;
42704;SDS011;28342;42.594;23.414;2023-04-24T07:39:53;11.00;;;5.80;;
42704;SDS011;28342;42.594;23.414;2023-04-24T07:42:18;9.05;;;6.13;;
42704;SDS011;28342;42.594;23.414;2023-04-24T07:44:44;10.57;;;5.90;;
42704;SDS011;28342;42.594;23.414;2023-04-24T07:47:11;7.10;;;5.53;;
42704;SDS011;28342;42.594;23.414;2023-04-24T07:49:37;8.23;;;4.65;;
42704;SDS011;28342;42.594;23.414;2023-04-24T07:52:02;6.68;;;4.78;;
42704;SDS011;28342;42.594;23.414;2023-04-24T07:54:28;8.85;;;4.57;;
42704;SDS011;28342;42.594;23.414;2023-04-24T07:56:54;12.77;;;5.57;;
42704;SDS011;28342;42.594;23.414;2023-04-24T07:59:19;6.18;;;4.07;;
42704;SDS011;28342;42.594;23.414;2023-04-24T08:01:45;8.55;;;4.38;;
42704;SDS011;28342;42.594;23.414;2023-04-24T08:04:10;9.80;;;3.92;;
42704;SDS011;28342;42.594;23.414;2023-04-24T08:06:36;9.65;;;4.93;;
42704;SDS011;28342;42.594;23.414;2023-04-24T08:09:01;8.75;;;4.75;;
42704;SDS011;28342;42.594;23.414;2023-04-24T08:11:27;9.23;;;3.65;;
42704;SDS011;28342;42.594;23.414;2023-04-24T08:13:53;9.43;;;3.95;;
42704;SDS011;28342;42.594;23.414;2023-04-24T08:16:19;8.25;;;4.13;;
42704;SDS011;28342;42.594;23.414;2023-04-24T08:18:45;4.97;;;3.40;;
42704;SDS011;28342;42.594;23.414;2023-04-24T08:21:10;6.63;;;3.83;;
42704;SDS011;28342;42.594;23.414;2023-04-24T08:23:37;4.32;;;3.65;;
42704;SDS011;28342;42.594;23.414;2023-04-24T08:26:03;5.55;;;3.97;;
42704;SDS011;28342;42.594;23.414;2023-04-24T08:28:28;5.65;;;3.80;;
42704;SDS011;28342;42.594;23.414;2023-04-24T08:30:54;6.88;;;3.78;;
42704;SDS011;28342;42.594;23.414;2023-04-24T08:33:23;4.75;;;3.50;;
42704;SDS011;28342;42.594;23.414;2023-04-24T08:35:48;6.72;;;3.63;;
42704;SDS011;28342;42.594;23.414;2023-04-24T08:38:14;7.20;;;3.65;;
42704;SDS011;28342;42.594;23.414;2023-04-24T08:40:40;9.85;;;3.90;;
42704;SDS011;28342;42.594;23.414;2023-04-24T08:43:06;5.70;;;3.47;;
42704;SDS011;28342;42.594;23.414;2023-04-24T08:45:32;6.63;;;4.20;;
42704;SDS011;28342;42.594;23.414;2023-04-24T08:47:58;8.70;;;3.58;;
42704;SDS011;28342;42.594;23.414;2023-04-24T08:50:24;4.95;;;4.05;;
42704;SDS011;28342;42.594;23.414;2023-04-24T08:52:50;6.18;;;3.70;;
42704;SDS011;28342;42.594;23.414;2023-04-24T08:55:20;3.65;;;3.22;;
42704;SDS011;28342;42.594;23.414;2023-04-24T08:57:50;7.07;;;4.25;;
42704;SDS011;28342;42.594;23.414;2023-04-24T09:00:17;5.05;;;3.30;;
42704;SDS011;28342;42.594;23.414;2023-04-24T09:02:44;8.27;;;3.85;;
42704;SDS011;28342;42.594;23.414;2023-04-24T09:05:12;5.53;;;3.35;;
42704;SDS011;28342;42.594;23.414;2023-04-24T09:07:39;8.07;;;3.30;;
42704;SDS011;28342;42.594;23.414;2023-04-24T09:10:07;4.68;;;3.53;;
42704;SDS011;28342;42.594;23.414;2023-04-24T09:12:35;5.43;;;3.60;;
42704;SDS011;28342;42.594;23.414;2023-04-24T09:15:02;4.88;;;3.47;;
42704;SDS011;28342;42.594;23.414;2023-04-24T09:17:31;6.00;;;3.30;;
42704;SDS011;28342;42.594;23.414;2023-04-24T09:19:58;6.82;;;3.70;;
42704;SDS011;28342;42.594;23.414;2023-04-24T09:22:23;4.18;;;3.20;;
42704;SDS011;28342;42.594;23.414;2023-04-24T09:24:52;5.97;;;3.42;;
42704;SDS011;28342;42.594;23.414;2023-04-24T09:27:27;4.32;;;3.20;;
42704;SDS011;28342;42.594;23.414;2023-04-24T09:29:54;4.95;;;3.45;;
42704;SDS011;28342;42.594;23.414;2023-04-24T09:32:21;4.57;;;3.30;;
42704;SDS011;28342;42.594;23.414;2023-04-24T09:34:50;3.83;;;3.00;;
42704;SDS011;28342;42.594;23.414;2023-04-24T09:37:29;4.03;;;3.25;;
42704;SDS011;28342;42.594;23.414;2023-04-24T09:42:33;5.40;;;2.95;;
42704;SDS011;28342;42.594;23.414;2023-04-24T09:44:58;6.38;;;3.38;;
42704;SDS011;28342;42.594;23.414;2023-04-24T09:47:24;6.55;;;3.17;;
42704;SDS011;28342;42.594;23.414;2023-04-24T09:49:49;5.72;;;3.13;;
42704;SDS011;28342;42.594;23.414;2023-04-24T09:52:15;5.43;;;3.63;;
42704;SDS011;28342;42.594;23.414;2023-04-24T09:54:40;8.50;;;2.95;;
42704;SDS011;28342;42.594;23.414;2023-04-24T09:57:09;5.03;;;3.60;;
42704;SDS011;28342;42.594;23.414;2023-04-24T09:59:34;5.70;;;3.58;;
42704;SDS011;28342;42.594;23.414;2023-04-24T10:02:00;4.80;;;3.45;;
42704;SDS011;28342;42.594;23.414;2023-04-24T10:04:26;8.98;;;3.60;;
42704;SDS011;28342;42.594;23.414;2023-04-24T10:06:53;5.95;;;3.20;;
42704;SDS011;28342;42.594;23.414;2023-04-24T10:09:21;6.38;;;3.60;;
42704;SDS011;28342;42.594;23.414;2023-04-24T10:11:50;5.38;;;3.22;;
42704;SDS011;28342;42.594;23.414;2023-04-24T10:14:17;3.78;;;2.65;;
42704;SDS011;28342;42.594;23.414;2023-04-24T10:16:45;5.60;;;2.63;;
42704;SDS011;28342;42.594;23.414;2023-04-24T10:19:12;3.78;;;2.85;;
42704;SDS011;28342;42.594;23.414;2023-04-24T10:21:43;6.72;;;2.72;;
42704;SDS011;28342;42.594;23.414;2023-04-24T10:24:17;3.25;;;2.60;;
42704;SDS011;28342;42.594;23.414;2023-04-24T10:26:43;6.57;;;4.20;;
42704;SDS011;28342;42.594;23.414;2023-04-24T10:29:11;3.25;;;2.83;;
42704;SDS011;28342;42.594;23.414;2023-04-24T10:31:37;2.95;;;2.67;;
42704;SDS011;28342;42.594;23.414;2023-04-24T10:34:07;3.78;;;2.80;;
42704;SDS011;28342;42.594;23.414;2023-04-24T10:36:34;4.03;;;2.35;;
42704;SDS011;28342;42.594;23.414;2023-04-24T10:39:02;3.50;;;2.60;;
42704;SDS011;28342;42.594;23.414;2023-04-24T10:41:31;4.07;;;2.83;;
42704;SDS011;28342;42.594;23.414;2023-04-24T10:44:04;4.10;;;2.92;;
42704;SDS011;28342;42.594;23.414;2023-04-24T10:46:33;4.55;;;2.90;;
42704;SDS011;28342;42.594;23.414;2023-04-24T10:48:59;4.45;;;2.80;;
42704;SDS011;28342;42.594;23.414;2023-04-24T10:51:44;2.72;;;2.47;;
42704;SDS011;28342;42.594;23.414;2023-04-24T10:54:24;2.78;;;2.50;;
42704;SDS011;28342;42.594;23.414;2023-04-24T10:59:48;3.97;;;2.55;;
42704;SDS011;28342;42.594;23.414;2023-04-24T11:02:38;4.82;;;2.30;;
42704;SDS011;28342;42.594;23.414;2023-04-24T11:05:05;5.13;;;2.92;;
42704;SDS011;28342;42.594;23.414;2023-04-24T11:10:39;3.70;;;2.83;;
42704;SDS011;28342;42.594;23.414;2023-04-24T11:13:05;3.50;;;2.97;;
42704;SDS011;28342;42.594;23.414;2023-04-24T11:15:31;4.30;;;2.90;;
42704;SDS011;28342;42.594;23.414;2023-04-24T11:17:57;2.65;;;2.38;;
42704;SDS011;28342;42.594;23.414;2023-04-24T11:20:23;3.25;;;2.55;;
42704;SDS011;28342;42.594;23.414;2023-04-24T11:22:50;3.28;;;2.60;;
42704;SDS011;28342;42.594;23.414;2023-04-24T11:25:19;3.67;;;2.92;;
42704;SDS011;28342;42.594;23.414;2023-04-24T11:27:47;2.92;;;2.22;;
42704;SDS011;28342;42.594;23.414;2023-04-24T11:30:18;6.22;;;2.90;;
42704;SDS011;28342;42.594;23.414;2023-04-24T11:32:47;5.35;;;2.90;;
42704;SDS011;28342;42.594;23.414;2023-04-24T11:35:16;4.50;;;2.60;;
42704;SDS011;28342;42.594;23.414;2023-04-24T11:37:49;2.90;;;2.60;;
42704;SDS011;28342;42.594;23.414;2023-04-24T11:40:16;2.25;;;1.75;;
42704;SDS011;28342;42.594;23.414;2023-04-24T11:42:44;2.45;;;2.00;;
42704;SDS011;28342;42.594;23.414;2023-04-24T11:45:15;3.03;;;2.22;;
42704;SDS011;28342;42.594;23.414;2023-04-24T11:47:41;3.17;;;2.58;;
42704;SDS011;28342;42.594;23.414;2023-04-24T11:50:08;3.53;;;2.88;;
42704;SDS011;28342;42.594;23.414;2023-04-24T11:52:38;3.65;;;3.22;;
42704;SDS011;28342;42.594;23.414;2023-04-24T11:57:45;3.33;;;2.92;;
42704;SDS011;28342;42.594;23.414;2023-04-24T12:00:15;4.25;;;3.63;;
42704;SDS011;28342;42.594;23.414;2023-04-24T12:02:43;6.20;;;4.30;;
42704;SDS011;28342;42.594;23.414;2023-04-24T12:05:18;5.50;;;3.88;;
42704;SDS011;28342;42.594;23.414;2023-04-24T12:07:51;6.40;;;3.70;;
42704;SDS011;28342;42.594;23.414;2023-04-24T12:10:20;4.78;;;3.30;;
42704;SDS011;28342;42.594;23.414;2023-04-24T12:12:46;3.55;;;3.22;;
42704;SDS011;28342;42.594;23.414;2023-04-24T12:15:12;4.68;;;3.55;;
42704;SDS011;28342;42.594;23.414;2023-04-24T12:17:40;4.63;;;3.13;;
42704;SDS011;28342;42.594;23.414;2023-04-24T12:20:07;6.47;;;4.70;;
42704;SDS011;28342;42.594;23.414;2023-04-24T12:22:46;5.53;;;3.50;;
42704;SDS011;28342;42.594;23.414;2023-04-24T12:25:18;3.30;;;3.00;;
42704;SDS011;28342;42.594;23.414;2023-04-24T12:31:09;3.45;;;2.80;;
42704;SDS011;28342;42.594;23.414;2023-04-24T12:33:44;7.60;;;4.22;;
42704;SDS011;28342;42.594;23.414;2023-04-24T12:36:09;5.10;;;3.45;;
42704;SDS011;28342;42.594;23.414;2023-04-24T12:38:37;5.47;;;4.03;;
42704;SDS011;28342;42.594;23.414;2023-04-24T12:41:06;4.75;;;3.83;;
42704;SDS011;28342;42.594;23.414;2023-04-24T12:43:34;6.43;;;3.85;;
42704;SDS011;28342;42.594;23.414;2023-04-24T12:46:00;5.60;;;3.70;;
42704;SDS011;28342;42.594;23.414;2023-04-24T12:48:26;4.72;;;4.13;;
42704;SDS011;28342;42.594;23.414;2023-04-24T12:50:52;6.53;;;4.95;;
42704;SDS011;28342;42.594;23.414;2023-04-24T12:53:17;9.43;;;5.88;;
42704;SDS011;28342;42.594;23.414;2023-04-24T12:55:43;9.07;;;5.55;;
42704;SDS011;28342;42.594;23.414;2023-04-24T12:58:10;8.45;;;4.90;;
42704;SDS011;28342;42.594;23.414;2023-04-24T13:00:35;8.40;;;5.50;;
42704;SDS011;28342;42.594;23.414;2023-04-24T13:03:01;8.43;;;4.93;;
42704;SDS011;28342;42.594;23.414;2023-04-24T13:05:27;5.95;;;4.85;;
42704;SDS011;28342;42.594;23.414;2023-04-24T13:07:53;8.30;;;5.60;;
42704;SDS011;28342;42.594;23.414;2023-04-24T13:10:18;6.38;;;4.82;;
42704;SDS011;28342;42.594;23.414;2023-04-24T13:12:44;7.10;;;4.82;;
42704;SDS011;28342;42.594;23.414;2023-04-24T13:15:11;18.40;;;5.53;;
42704;SDS011;28342;42.594;23.414;2023-04-24T13:17:37;6.45;;;4.90;;
42704;SDS011;28342;42.594;23.414;2023-04-24T13:20:02;7.43;;;5.05;;
42704;SDS011;28342;42.594;23.414;2023-04-24T13:22:28;8.43;;;5.22;;
42704;SDS011;28342;42.594;23.414;2023-04-24T13:24:54;7.38;;;4.88;;
42704;SDS011;28342;42.594;23.414;2023-04-24T13:27:19;6.78;;;5.05;;
42704;SDS011;28342;42.594;23.414;2023-04-24T13:29:45;11.93;;;5.80;;
42704;SDS011;28342;42.594;23.414;2023-04-24T13:32:11;8.48;;;5.80;;
42704;SDS011;28342;42.594;23.414;2023-04-24T13:34:36;5.93;;;4.57;;
42704;SDS011;28342;42.594;23.414;2023-04-24T13:37:02;7.43;;;5.60;;
42704;SDS011;28342;42.594;23.414;2023-04-24T13:39:31;6.82;;;5.28;;
42704;SDS011;28342;42.594;23.414;2023-04-24T13:41:58;7.30;;;5.70;;
42704;SDS011;28342;42.594;23.414;2023-04-24T13:44:23;6.55;;;5.32;;
42704;SDS011;28342;42.594;23.414;2023-04-24T13:46:50;8.85;;;5.97;;
42704;SDS011;28342;42.594;23.414;2023-04-24T13:49:19;9.93;;;6.47;;
42704;SDS011;28342;42.594;23.414;2023-04-24T13:51:45;7.40;;;4.80;;
42704;SDS011;28342;42.594;23.414;2023-04-24T13:54:10;9.95;;;5.30;;
42704;SDS011;28342;42.594;23.414;2023-04-24T13:56:36;7.88;;;5.30;;
42704;SDS011;28342;42.594;23.414;2023-04-24T13:59:02;6.43;;;5.15;;
42704;SDS011;28342;42.594;23.414;2023-04-24T14:01:27;6.32;;;5.00;;
42704;SDS011;28342;42.594;23.414;2023-04-24T14:03:53;7.90;;;5.55;;
42704;SDS011;28342;42.594;23.414;2023-04-24T14:06:20;8.65;;;4.82;;
42704;SDS011;28342;42.594;23.414;2023-04-24T14:08:46;4.78;;;4.03;;
42704;SDS011;28342;42.594;23.414;2023-04-24T14:11:12;7.45;;;4.10;;
42704;SDS011;28342;42.594;23.414;2023-04-24T14:13:37;10.13;;;4.78;;
42704;SDS011;28342;42.594;23.414;2023-04-24T14:16:04;6.35;;;4.55;;
42704;SDS011;28342;42.594;23.414;2023-04-24T14:18:30;6.35;;;3.90;;
42704;SDS011;28342;42.594;23.414;2023-04-24T14:21:03;4.78;;;3.67;;
42704;SDS011;28342;42.594;23.414;2023-04-24T14:23:29;6.47;;;4.28;;
42704;SDS011;28342;42.594;23.414;2023-04-24T14:25:55;5.03;;;3.53;;
42704;SDS011;28342;42.594;23.414;2023-04-24T14:28:21;6.35;;;3.63;;
42704;SDS011;28342;42.594;23.414;2023-04-24T14:30:47;6.20;;;3.47;;
42704;SDS011;28342;42.594;23.414;2023-04-24T14:33:13;4.10;;;3.22;;
42704;SDS011;28342;42.594;23.414;2023-04-24T14:35:39;4.57;;;3.58;;
42704;SDS011;28342;42.594;23.414;2023-04-24T14:38:08;6.95;;;3.78;;
42704;SDS011;28342;42.594;23.414;2023-04-24T14:40:33;4.45;;;2.90;;